Time;durP1;ratioP1;P1;durP2;ratioP2;P2;SDS_P1;SDS_P2;PMS_P1;PMS_P2;Temp;Humidity;BMP_temperature;BMP_pressure;BME280_temperature;BME280_humidity;BME280_pressure;Samples;Min_cycle;Max_cycle;Signal;HPM_P1;HPM_P2
2024/01/12 00:01:47;;;;;;;31.27;20.30;;;;;;;-5.58;70.90;94637.38;4202197;28;20068;-67
2024/01/12 00:03:50;;;;;;;29.63;19.83;;;;;;;-5.27;69.92;94632.69;4197408;28;20126;-68
2024/01/12 00:05:52;;;;;;;36.90;20.98;;;;;;;-5.29;69.06;94629.38;4198656;28;20150;-68
2024/01/12 00:07:54;;;;;;;32.13;20.05;;;;;;;-5.21;69.12;94637.53;4201372;28;20109;-67
2024/01/12 00:09:55;;;;;;;30.63;20.08;;;;;;;-5.45;69.27;94635.16;4200088;28;20058;-69
2024/01/12 00:11:58;;;;;;;32.47;20.27;;;;;;;-5.47;69.60;94646.31;4195672;28;20042;-68
2024/01/12 00:14:00;;;;;;;29.80;19.60;;;;;;;-5.36;68.57;94633.91;4199890;28;20109;-69
2024/01/12 00:16:08;;;;;;;25.33;17.77;;;;;;;-5.31;68.44;94633.72;4197718;28;20048;-68
2024/01/12 00:18:10;;;;;;;24.45;16.88;;;;;;;-5.31;67.67;94626.06;4208372;28;20399;-68
2024/01/12 00:20:12;;;;;;;27.10;16.83;;;;;;;-5.11;67.44;94622.66;4196232;28;20044;-68
2024/01/12 00:22:14;;;;;;;25.52;16.90;;;;;;;-4.81;66.17;94626.41;4207079;28;20052;-67
2024/01/12 00:24:16;;;;;;;25.85;17.05;;;;;;;-4.68;65.10;94626.69;4202561;28;20163;-68
2024/01/12 00:26:17;;;;;;;24.92;16.65;;;;;;;-4.46;64.76;94621.41;4205592;28;20048;-69
2024/01/12 00:28:19;;;;;;;21.98;14.38;;;;;;;-4.24;63.57;94631.47;4196498;28;20109;-67
2024/01/12 00:30:21;;;;;;;24.95;15.00;;;;;;;-4.07;62.35;94630.66;4206494;28;20638;-70
2024/01/12 00:32:24;;;;;;;25.20;16.05;;;;;;;-3.82;61.89;94637.19;4196690;28;20597;-70
2024/01/12 00:34:25;;;;;;;21.15;14.38;;;;;;;-3.98;60.81;94639.63;4200607;28;20130;-69
2024/01/12 00:36:28;;;;;;;21.00;14.48;;;;;;;-4.07;60.47;94634.97;4200957;28;20511;-70
2024/01/12 00:38:31;;;;;;;21.25;14.02;;;;;;;-4.14;60.78;94637.81;4201141;28;20105;-66
2024/01/12 00:40:33;;;;;;;22.60;14.68;;;;;;;-4.05;61.22;94640.84;4199839;28;20052;-67
2024/01/12 00:42:35;;;;;;;22.73;14.27;;;;;;;-3.83;60.66;94631.25;4199093;28;20082;-68
2024/01/12 00:44:36;;;;;;;20.05;13.50;;;;;;;-3.70;59.33;94631.44;4200801;28;20108;-68
2024/01/12 00:46:39;;;;;;;23.88;14.68;;;;;;;-3.56;58.48;94625.66;4203259;28;20075;-69
2024/01/12 00:48:42;;;;;;;20.33;12.18;;;;;;;-3.50;58.14;94633.06;4200420;28;20048;-68
2024/01/12 00:50:44;;;;;;;20.33;13.15;;;;;;;-3.39;56.68;94629.94;4200988;28;20159;-68
2024/01/12 00:52:46;;;;;;;17.15;11.60;;;;;;;-3.20;55.24;94628.13;4198702;28;20060;-69
2024/01/12 00:54:48;;;;;;;19.17;11.80;;;;;;;-3.01;55.12;94616.91;4203910;28;20430;-68
2024/01/12 00:56:50;;;;;;;16.75;11.35;;;;;;;-2.87;54.48;94627.28;4200569;28;20047;-67
2024/01/12 00:58:52;;;;;;;16.80;11.52;;;;;;;-2.68;54.11;94622.84;4200877;28;20048;-67
2024/01/12 01:00:54;;;;;;;15.07;10.40;;;;;;;-2.74;53.25;94620.59;4201372;28;20134;-69
2024/01/12 01:02:56;;;;;;;17.33;11.57;;;;;;;-2.69;53.74;94625.47;4199678;28;20040;-68
2024/01/12 01:04:58;;;;;;;16.23;10.27;;;;;;;-2.66;53.34;94625.31;4202081;28;20401;-69
2024/01/12 01:07:00;;;;;;;17.05;11.10;;;;;;;-2.66;52.87;94620.19;4199865;28;20059;-69
2024/01/12 01:09:02;;;;;;;15.07;9.90;;;;;;;-2.65;52.77;94619.28;4204800;28;20143;-68
2024/01/12 01:11:04;;;;;;;15.23;10.00;;;;;;;-2.56;52.11;94625.66;4203690;28;20139;-68
2024/01/12 01:13:06;;;;;;;16.30;10.07;;;;;;;-2.57;51.47;94624.81;4196058;28;20083;-67
2024/01/12 01:15:09;;;;;;;15.43;10.00;;;;;;;-2.57;51.71;94618.88;4201811;28;20051;-68
2024/01/12 01:17:11;;;;;;;16.55;9.45;;;;;;;-2.67;51.21;94613.41;4199757;28;20076;-69
2024/01/12 01:19:13;;;;;;;14.30;10.35;;;;;;;-2.98;51.98;94614.19;4208191;28;20052;-71
2024/01/12 01:21:15;;;;;;;15.93;10.40;;;;;;;-3.29;52.99;94610.66;4197449;28;20227;-68
2024/01/12 01:23:17;;;;;;;16.90;9.77;;;;;;;-3.31;52.96;94613.28;4201964;28;20064;-68
2024/01/12 01:25:19;;;;;;;14.60;9.65;;;;;;;-3.09;52.36;94604.50;4197037;28;20052;-69
2024/01/12 01:27:21;;;;;;;14.35;9.65;;;;;;;-2.95;51.30;94601.22;4197491;28;20131;-69
2024/01/12 01:29:22;;;;;;;13.52;9.00;;;;;;;-2.74;51.30;94604.38;4201407;28;20143;-69
2024/01/12 01:31:25;;;;;;;14.35;9.20;;;;;;;-2.68;50.38;94597.19;4204212;28;20083;-70
2024/01/12 01:33:27;;;;;;;15.50;9.07;;;;;;;-2.52;49.79;94593.81;4197366;28;20052;-68
2024/01/12 01:35:29;;;;;;;15.05;9.65;;;;;;;-2.80;49.75;94579.06;4205509;28;20129;-69
2024/01/12 01:37:31;;;;;;;14.50;9.40;;;;;;;-3.00;50.68;94570.69;4196839;28;20043;-69
2024/01/12 01:39:33;;;;;;;15.73;9.82;;;;;;;-3.08;51.18;94570.28;4199112;28;20128;-67
2024/01/12 01:41:36;;;;;;;15.95;10.55;;;;;;;-3.63;52.35;94570.56;4201159;28;20051;-68
2024/01/12 01:43:37;;;;;;;17.67;10.60;;;;;;;-3.86;53.64;94574.25;4199798;28;20048;-68
2024/01/12 01:45:39;;;;;;;15.73;10.43;;;;;;;-4.07;54.87;94576.13;4201455;28;20075;-66
2024/01/12 01:47:42;;;;;;;17.42;11.82;;;;;;;-4.30;56.33;94582.34;4200284;28;20052;-68
2024/01/12 01:49:44;;;;;;;21.45;15.15;;;;;;;-4.41;57.34;94585.41;4195847;28;20076;-69
2024/01/12 01:51:47;;;;;;;22.00;14.82;;;;;;;-4.65;58.67;94577.16;4203442;28;20051;-65
2024/01/12 01:53:49;;;;;;;24.35;15.18;;;;;;;-4.66;59.66;94578.88;4180871;28;20072;-66
2024/01/12 01:55:51;;;;;;;24.33;15.30;;;;;;;-4.79;60.73;94573.50;4197537;28;20464;-68
2024/01/12 01:57:53;;;;;;;25.90;16.98;;;;;;;-4.69;61.04;94568.78;4196116;28;20127;-69
2024/01/12 01:59:55;;;;;;;26.00;16.15;;;;;;;-4.54;60.40;94570.66;4193211;28;20052;-68
2024/01/12 02:01:58;;;;;;;23.80;15.88;;;;;;;-4.29;59.47;94558.44;4199629;28;20139;-67
2024/01/12 02:04:01;;;;;;;25.13;16.48;;;;;;;-4.09;58.69;94557.47;4197851;28;20545;-69
2024/01/12 02:06:03;;;;;;;25.53;16.20;;;;;;;-4.08;59.31;94561.69;4193393;28;20083;-69
2024/01/12 02:08:06;;;;;;;26.67;16.40;;;;;;;-3.93;58.27;94550.69;4200685;28;20844;-68
2024/01/12 02:10:09;;;;;;;21.50;13.98;;;;;;;-3.69;56.76;94555.50;4194523;28;20151;-68
2024/01/12 02:12:11;;;;;;;17.63;12.00;;;;;;;-3.46;55.67;94544.91;4199286;28;20101;-68
2024/01/12 02:14:13;;;;;;;20.60;12.60;;;;;;;-3.20;54.73;94542.75;4205591;28;20048;-69
2024/01/12 02:16:17;;;;;;;18.55;10.70;;;;;;;-3.01;53.41;94546.00;4193188;28;20124;-69
2024/01/12 02:18:19;;;;;;;;;;;;;;;-2.95;51.54;94555.91;4199910;28;20178;-68
2024/01/12 02:20:21;;;;;;;13.73;9.68;;;;;;;-2.99;51.39;94549.31;4201997;28;19942;-68
2024/01/12 02:22:23;;;;;;;13.80;8.95;;;;;;;-2.81;51.08;94551.78;4197425;28;20135;-67
2024/01/12 02:24:25;;;;;;;12.05;9.45;;;;;;;-2.74;50.34;94555.66;4199814;28;20075;-66
2024/01/12 02:26:26;;;;;;;13.57;8.95;;;;;;;-2.65;49.34;94559.47;4197135;28;20051;-66
2024/01/12 02:28:28;;;;;;;13.68;8.65;;;;;;;-2.66;49.71;94557.84;4198143;28;20052;-67
2024/01/12 02:30:30;;;;;;;14.25;9.50;;;;;;;-2.49;49.77;94545.72;4193850;28;20087;-68
2024/01/12 02:32:32;;;;;;;13.73;9.13;;;;;;;-2.33;49.20;94547.44;4198758;28;20072;-69
2024/01/12 02:34:34;;;;;;;20.38;10.70;;;;;;;-2.68;50.22;94555.34;4204817;28;20102;-67
2024/01/12 02:36:36;;;;;;;17.77;11.80;;;;;;;-3.11;51.58;94553.31;4205496;28;20063;-67
2024/01/12 02:38:38;;;;;;;20.70;12.25;;;;;;;-3.51;53.31;94559.69;4197423;28;20060;-66
2024/01/12 02:40:40;;;;;;;20.50;13.13;;;;;;;-3.39;53.31;94553.13;4200341;28;20048;-65
2024/01/12 02:42:42;;;;;;;21.67;13.05;;;;;;;-3.61;53.66;94554.22;4198095;28;20045;-68
2024/01/12 02:44:44;;;;;;;21.73;13.57;;;;;;;-3.82;54.89;94548.44;4203191;28;20478;-66
2024/01/12 02:46:45;;;;;;;22.88;14.65;;;;;;;-3.80;55.67;94554.28;4200198;28;20055;-68
2024/01/12 02:48:47;;;;;;;22.25;13.40;;;;;;;-3.88;56.33;94547.91;4203332;28;20068;-69
2024/01/12 02:50:49;;;;;;;24.58;15.35;;;;;;;-3.96;57.33;94561.06;4199409;28;20348;-68
2024/01/12 02:52:51;;;;;;;24.98;15.40;;;;;;;-4.15;57.52;94567.09;4195222;28;20595;-67
2024/01/12 02:54:53;;;;;;;26.75;15.48;;;;;;;-4.19;58.62;94559.66;4203872;28;20109;-70
2024/01/12 02:57:00;;;;;;;28.38;17.67;;;;;;;-4.42;59.41;94565.84;4200150;28;20529;-69
2024/01/12 02:59:02;;;;;;;25.58;16.25;;;;;;;-4.46;59.93;94575.38;4199262;28;20059;-69
2024/01/12 03:01:04;;;;;;;26.08;16.95;;;;;;;-4.53;60.16;94579.97;4204343;28;20048;-68
2024/01/12 03:03:06;;;;;;;24.50;16.80;;;;;;;-4.84;61.16;94575.44;4206530;28;20040;-67
2024/01/12 03:05:09;;;;;;;28.70;17.75;;;;;;;-4.79;61.18;94572.69;4203431;28;20083;-68
2024/01/12 03:07:11;;;;;;;26.38;16.48;;;;;;;-4.92;61.49;94576.69;4203350;28;20417;-68
2024/01/12 03:09:13;;;;;;;26.60;17.27;;;;;;;-4.84;61.85;94569.50;4204374;28;20056;-68
2024/01/12 03:11:15;;;;;;;25.63;16.88;;;;;;;-4.78;61.95;94569.22;4204968;28;20147;-68
2024/01/12 03:13:18;;;;;;;26.15;16.75;;;;;;;-5.01;62.51;94572.81;4198337;28;20132;-70
2024/01/12 03:15:19;;;;;;;26.48;17.02;;;;;;;-5.10;63.05;94571.50;4199725;28;20051;-70
2024/01/12 03:17:21;;;;;;;26.30;16.67;;;;;;;-5.16;62.88;94559.03;4208776;28;20450;-69
2024/01/12 03:19:23;;;;;;;24.33;16.00;;;;;;;-4.86;62.73;94554.25;4206948;28;20608;-69
2024/01/12 03:21:25;;;;;;;24.15;16.30;;;;;;;-4.54;61.86;94554.47;4199796;28;20739;-70
2024/01/12 03:23:27;;;;;;;25.77;16.25;;;;;;;-4.30;60.85;94552.50;4202125;28;20062;-68
2024/01/12 03:25:29;;;;;;;26.95;17.38;;;;;;;-4.21;60.51;94553.78;4207533;28;20060;-68
2024/01/12 03:27:32;;;;;;;22.10;15.13;;;;;;;-3.99;59.05;94554.38;4204143;28;20136;-67
2024/01/12 03:29:34;;;;;;;28.83;17.57;;;;;;;-4.27;59.57;94560.00;4207970;28;20052;-69
2024/01/12 03:31:36;;;;;;;34.35;17.88;;;;;;;-4.39;60.44;94560.59;4202329;28;20309;-68
2024/01/12 03:33:38;;;;;;;32.78;18.88;;;;;;;-4.57;60.31;94567.41;4198063;28;20365;-68
2024/01/12 03:35:41;;;;;;;33.50;20.45;;;;;;;-4.87;62.09;94569.66;4203578;28;20048;-70
2024/01/12 03:37:42;;;;;;;32.55;18.58;;;;;;;-4.95;62.24;94558.06;4203427;28;20125;-69
2024/01/12 03:39:44;;;;;;;30.23;18.40;;;;;;;-4.68;61.56;94560.22;4200409;28;20068;-71
2024/01/12 03:41:47;;;;;;;27.48;15.80;;;;;;;-4.29;60.62;94551.56;4199782;28;20045;-68
2024/01/12 03:43:48;;;;;;;26.45;15.55;;;;;;;-3.94;58.81;94547.31;4193399;28;20443;-70
2024/01/12 03:45:50;;;;;;;24.45;15.82;;;;;;;-3.67;57.27;94539.16;4205862;28;20052;-67
2024/01/12 03:47:52;;;;;;;20.63;13.43;;;;;;;-3.42;55.74;94537.88;4208585;28;20143;-71
2024/01/12 03:49:54;;;;;;;19.67;12.77;;;;;;;-3.31;54.49;94540.75;4204612;28;20806;-70
2024/01/12 03:51:57;;;;;;;20.77;12.85;;;;;;;-3.16;54.82;94534.81;4201626;28;20561;-69
2024/01/12 03:54:14;;;;;;;19.05;11.57;;;;;;;-2.96;53.12;94538.88;4199017;28;20132;-69
2024/01/12 03:56:16;;;;;;;16.48;10.75;;;;;;;-2.84;52.98;94544.25;4200323;28;20052;-69
2024/01/12 03:58:18;;;;;;;16.35;11.30;;;;;;;-2.74;52.39;94548.78;4207264;28;20063;-69
2024/01/12 04:00:20;;;;;;;17.90;11.00;;;;;;;-2.72;52.28;94546.97;4195614;28;20453;-68
2024/01/12 04:02:22;;;;;;;19.65;11.40;;;;;;;-2.74;52.62;94538.53;4198404;28;20203;-68
2024/01/12 04:04:24;;;;;;;17.30;11.00;;;;;;;-2.76;52.26;94532.66;4205269;28;20101;-69
2024/01/12 04:06:26;;;;;;;17.83;11.20;;;;;;;-2.72;52.52;94539.28;4203970;28;20521;-70
2024/01/12 04:08:29;;;;;;;15.68;10.48;;;;;;;-2.59;51.99;94530.94;4201229;28;20056;-69
2024/01/12 04:10:30;;;;;;;18.77;11.52;;;;;;;-2.70;51.52;94536.66;4201224;28;20106;-67
2024/01/12 04:12:32;;;;;;;15.65;10.68;;;;;;;-2.72;52.07;94541.03;4203401;28;20048;-67
2024/01/12 04:14:34;;;;;;;16.98;10.48;;;;;;;-2.85;51.85;94547.75;4205388;28;20047;-66
2024/01/12 04:16:37;;;;;;;17.80;10.90;;;;;;;-3.10;53.14;94533.66;4202208;28;20045;-67
2024/01/12 04:18:39;;;;;;;18.15;11.52;;;;;;;-3.29;53.73;94533.81;4208129;28;20047;-68
2024/01/12 04:20:41;;;;;;;17.90;11.27;;;;;;;-3.54;54.40;94541.91;4209370;28;20461;-69
2024/01/12 04:22:43;;;;;;;24.75;12.23;;;;;;;-3.69;54.91;94540.13;4200332;28;20182;-67
2024/01/12 04:24:45;;;;;;;21.40;11.98;;;;;;;-3.95;56.16;94534.59;4204404;28;20094;-69
2024/01/12 04:26:47;;;;;;;20.67;12.85;;;;;;;-4.08;56.88;94541.22;4197088;28;20145;-67
2024/01/12 04:28:49;;;;;;;22.48;13.32;;;;;;;-3.95;56.99;94537.16;4202812;28;20128;-68
2024/01/12 04:30:51;;;;;;;20.88;12.70;;;;;;;-3.85;56.34;94546.03;4204211;28;20134;-67
2024/01/12 04:32:53;;;;;;;20.15;12.90;;;;;;;-3.82;56.74;94543.31;4201550;28;20106;-70
2024/01/12 04:34:55;;;;;;;23.45;12.95;;;;;;;-3.78;56.33;94544.81;4197745;28;20052;-69
2024/01/12 04:36:57;;;;;;;19.15;12.35;;;;;;;-3.82;56.27;94545.88;4203999;28;20067;-69
2024/01/12 04:38:59;;;;;;;26.10;13.45;;;;;;;-3.97;56.45;94547.44;4203178;28;20438;-69
2024/01/12 04:41:01;;;;;;;27.27;13.45;;;;;;;-4.08;57.11;94546.34;4203766;28;20275;-68
2024/01/12 04:43:03;;;;;;;26.77;14.38;;;;;;;-4.32;58.12;94544.88;4204858;28;20131;-69
2024/01/12 04:45:06;;;;;;;23.58;14.18;;;;;;;-4.47;58.05;94548.19;4199727;28;20045;-70
2024/01/12 04:47:09;;;;;;;25.92;14.18;;;;;;;-4.13;58.64;94533.75;4201086;28;20166;-70
2024/01/12 04:49:11;;;;;;;21.38;13.73;;;;;;;-4.23;58.93;94535.94;4203874;28;20117;-71
2024/01/12 04:51:13;;;;;;;28.45;15.88;;;;;;;-4.30;59.13;94534.59;4205367;28;20062;-69
2024/01/12 04:53:15;;;;;;;28.23;15.95;;;;;;;-4.38;60.04;94539.25;4195931;28;20463;-66
2024/01/12 04:55:17;;;;;;;30.92;18.00;;;;;;;-4.44;60.31;94557.44;4200107;28;20234;-68
2024/01/12 04:57:18;;;;;;;26.92;16.77;;;;;;;-4.50;60.56;94552.59;4199755;28;20058;-69
2024/01/12 04:59:20;;;;;;;26.70;15.52;;;;;;;-4.50;60.62;94547.47;4195902;28;20079;-68
2024/01/12 05:01:22;;;;;;;28.33;16.77;;;;;;;-4.59;60.28;94553.84;4196429;28;20426;-70
2024/01/12 05:03:24;;;;;;;27.63;16.35;;;;;;;-4.54;60.79;94547.66;4195887;28;20441;-70
2024/01/12 05:05:26;;;;;;;27.35;17.27;;;;;;;-4.57;60.58;94563.09;4198035;28;20242;-70
2024/01/12 05:07:28;;;;;;;26.60;17.10;;;;;;;-4.35;61.26;94557.81;4205834;28;20117;-70
2024/01/12 05:09:30;;;;;;;28.15;17.42;;;;;;;-4.23;60.72;94564.06;4206612;28;20492;-68
2024/01/12 05:11:32;;;;;;;32.53;19.77;;;;;;;-4.10;60.39;94569.44;4207807;28;20155;-70
2024/01/12 05:13:34;;;;;;;39.97;20.67;;;;;;;-4.18;60.73;94568.97;4206906;28;20040;-69
2024/01/12 05:15:36;;;;;;;33.75;21.80;;;;;;;-4.30;61.63;94570.41;4200604;28;20044;-69
2024/01/12 05:17:38;;;;;;;34.85;22.20;;;;;;;-4.53;62.09;94572.28;4197553;28;20131;-69
2024/01/12 05:19:41;;;;;;;38.35;22.70;;;;;;;-4.64;62.36;94577.09;4205370;28;20055;-69
2024/01/12 05:21:43;;;;;;;35.88;23.50;;;;;;;-4.48;62.81;94586.59;4198636;28;20538;-70
2024/01/12 05:23:45;;;;;;;37.47;22.90;;;;;;;-4.43;62.70;94584.63;4202067;28;20067;-69
2024/01/12 05:25:46;;;;;;;41.08;22.73;;;;;;;-4.36;62.53;94591.16;4206710;28;20440;-70
2024/01/12 05:27:48;;;;;;;35.22;22.38;;;;;;;-4.22;61.87;94583.63;4204991;28;20074;-71
2024/01/12 05:29:50;;;;;;;37.55;22.90;;;;;;;-4.15;61.82;94594.38;4204314;28;20127;-69
2024/01/12 05:31:52;;;;;;;37.60;23.17;;;;;;;-3.99;61.86;94591.94;4204275;28;20051;-70
2024/01/12 05:33:54;;;;;;;33.58;22.50;;;;;;;-3.88;61.08;94599.91;4204786;28;20056;-68
2024/01/12 05:35:56;;;;;;;40.63;22.05;;;;;;;-3.79;60.61;94596.06;4207945;28;20144;-68
2024/01/12 05:37:58;;;;;;;36.38;22.40;;;;;;;-3.78;60.50;94608.81;4207136;28;20054;-69
2024/01/12 05:40:00;;;;;;;34.53;22.15;;;;;;;-3.76;60.55;94599.31;4204867;28;20131;-70
2024/01/12 05:42:02;;;;;;;33.70;21.67;;;;;;;-3.62;60.71;94597.81;4204509;28;20056;-69
2024/01/12 05:44:04;;;;;;;33.80;21.52;;;;;;;-3.53;59.72;94602.47;4202916;28;20078;-68
2024/01/12 05:46:07;;;;;;;32.15;21.85;;;;;;;-3.44;59.67;94609.69;4198165;28;20470;-69
2024/01/12 05:48:08;;;;;;;32.30;20.73;;;;;;;-3.34;59.50;94610.88;4207694;28;20058;-67
2024/01/12 05:50:10;;;;;;;34.00;21.38;;;;;;;-3.22;58.75;94611.16;4204861;28;20501;-70
2024/01/12 05:52:12;;;;;;;33.30;20.80;;;;;;;-3.17;58.99;94606.63;4201334;28;20486;-69
2024/01/12 05:54:14;;;;;;;31.05;20.27;;;;;;;-3.07;58.69;94605.25;4197237;28;20052;-69
2024/01/12 05:56:16;;;;;;;34.40;20.80;;;;;;;-2.96;58.54;94608.09;4197678;28;20057;-70
2024/01/12 05:58:19;;;;;;;31.80;21.05;;;;;;;-2.95;57.66;94602.03;4199216;28;20052;-71
2024/01/12 06:00:21;;;;;;;32.40;19.98;;;;;;;-2.93;58.02;94604.53;4199580;28;20058;-71
2024/01/12 06:02:23;;;;;;;32.08;21.13;;;;;;;-2.88;58.10;94600.00;4206334;28;20044;-70
2024/01/12 06:04:25;;;;;;;30.30;19.98;;;;;;;-2.84;57.25;94604.03;4207991;28;20052;-70
2024/01/12 06:06:27;;;;;;;36.72;20.63;;;;;;;-2.86;57.05;94597.34;4204934;28;20071;-68
2024/01/12 06:08:29;;;;;;;35.63;21.55;;;;;;;-3.53;59.05;94603.31;4200542;28;20484;-68
2024/01/12 06:10:31;;;;;;;39.70;24.20;;;;;;;-4.03;60.79;94598.94;4207862;28;20044;-69
2024/01/12 06:12:32;;;;;;;35.45;21.65;;;;;;;-4.42;61.78;94609.31;4197733;28;20530;-69
2024/01/12 06:14:34;;;;;;;39.88;22.48;;;;;;;-4.65;62.50;94605.25;4205789;28;20048;-70
2024/01/12 06:16:36;;;;;;;34.47;22.75;;;;;;;-4.64;63.00;94610.31;4201972;28;20040;-70
2024/01/12 06:18:38;;;;;;;40.10;22.83;;;;;;;-4.78;63.58;94600.69;4202202;28;20047;-70
2024/01/12 06:20:40;;;;;;;34.22;20.38;;;;;;;-4.84;62.84;94605.25;4203612;28;20481;-72
2024/01/12 06:22:42;;;;;;;39.85;24.85;;;;;;;-5.04;64.09;94617.19;4203874;28;20135;-71
2024/01/12 06:24:44;;;;;;;42.80;25.95;;;;;;;-5.23;64.60;94618.91;4196950;28;20053;-71
2024/01/12 06:26:46;;;;;;;46.00;25.88;;;;;;;-5.10;65.31;94621.75;4210730;28;20225;-69
2024/01/12 06:28:48;;;;;;;34.70;21.45;;;;;;;-4.81;63.34;94618.75;4209187;28;20543;-69
2024/01/12 06:30:53;;;;;;;31.17;19.52;;;;;;;-4.28;61.51;94618.91;4208796;28;20482;-70
2024/01/12 06:32:55;;;;;;;29.98;18.02;;;;;;;-3.45;57.63;94612.34;4204802;28;20090;-70
2024/01/12 06:34:57;;;;;;;38.38;15.98;;;;;;;-3.02;54.68;94617.81;4204674;28;20098;-70
2024/01/12 06:36:59;;;;;;;25.08;15.02;;;;;;;-2.81;53.58;94610.75;4205037;28;20185;-69
2024/01/12 06:39:01;;;;;;;20.35;12.98;;;;;;;-2.91;53.08;94620.66;4202642;28;20076;-69
2024/01/12 06:41:03;;;;;;;21.25;12.07;;;;;;;-2.85;52.17;94622.91;4210338;28;20048;-70
2024/01/12 06:43:05;;;;;;;22.05;13.38;;;;;;;-3.04;52.65;94625.59;4209056;28;20048;-71
2024/01/12 06:45:10;;;;;;;26.75;13.18;;;;;;;-2.89;53.02;94629.09;4206229;28;20058;-70
2024/01/12 06:47:12;;;;;;;20.58;13.43;;;;;;;-2.92;52.10;94626.69;4203475;28;20121;-70
2024/01/12 06:49:14;;;;;;;24.52;13.75;;;;;;;-3.23;53.12;94635.13;4204077;28;20095;-69
2024/01/12 06:51:23;;;;;;;26.20;14.15;;;;;;;-3.61;53.99;94640.44;4204430;28;20068;-68
2024/01/12 06:53:25;;;;;;;24.48;14.10;;;;;;;-3.64;54.31;94640.56;4206384;28;20098;-68
2024/01/12 06:55:27;;;;;;;26.05;14.20;;;;;;;-3.47;54.48;94634.63;4205641;28;20048;-70
2024/01/12 06:57:29;;;;;;;24.92;14.50;;;;;;;-3.09;53.57;94630.94;4205125;28;20151;-69
2024/01/12 06:59:31;;;;;;;22.25;13.70;;;;;;;-2.76;52.83;94626.72;4209048;28;20084;-68
2024/01/12 07:01:34;;;;;;;27.33;13.52;;;;;;;-2.49;51.73;94627.00;4199921;28;20044;-71
2024/01/12 07:03:36;;;;;;;18.77;11.65;;;;;;;-2.52;51.37;94630.56;4205983;28;20101;-69
2024/01/12 07:05:38;;;;;;;25.38;12.70;;;;;;;-2.44;51.68;94630.13;4196445;28;20103;-68
2024/01/12 07:07:42;;;;;;;20.48;12.25;;;;;;;-2.55;51.33;94640.97;4203799;28;20155;-68
2024/01/12 07:09:45;;;;;;;20.63;12.95;;;;;;;-2.59;52.35;94647.16;4204977;28;20126;-71
2024/01/12 07:11:47;;;;;;;26.13;13.63;;;;;;;-2.57;52.27;94640.22;4209459;28;20047;-68
2024/01/12 07:13:49;;;;;;;28.33;14.98;;;;;;;-2.84;52.75;94642.50;4208266;28;20440;-70
2024/01/12 07:15:51;;;;;;;25.90;14.77;;;;;;;-2.95;52.74;94645.59;4202303;28;20414;-70
2024/01/12 07:17:53;;;;;;;31.00;15.32;;;;;;;-3.36;55.09;94661.34;4199628;28;20135;-68
2024/01/12 07:19:55;;;;;;;27.33;15.55;;;;;;;-3.75;56.37;94667.53;4204959;28;20059;-68
2024/01/12 07:21:57;;;;;;;31.60;16.88;;;;;;;-3.62;56.46;94665.19;4204374;28;20048;-69
2024/01/12 07:24:00;;;;;;;28.02;16.27;;;;;;;-3.27;55.19;94656.69;4200005;28;20479;-69
2024/01/12 07:26:02;;;;;;;27.80;15.52;;;;;;;-2.99;54.30;94653.53;4200207;28;20128;-68
2024/01/12 07:28:05;;;;;;;23.88;15.63;;;;;;;-2.80;53.80;94666.25;4198005;28;20460;-70
2024/01/12 07:30:07;;;;;;;28.70;16.20;;;;;;;-3.10;54.35;94672.03;4204811;28;20138;-68
2024/01/12 07:32:09;;;;;;;25.33;14.95;;;;;;;-3.61;55.81;94671.16;4202850;28;20070;-66
2024/01/12 07:34:11;;;;;;;29.35;16.60;;;;;;;-3.79;57.03;94683.94;4195539;28;20059;-66
2024/01/12 07:36:13;;;;;;;27.35;16.10;;;;;;;-3.76;57.37;94685.53;4198267;28;20549;-67
2024/01/12 07:38:15;;;;;;;35.00;17.85;;;;;;;-3.39;56.94;94682.00;4202385;28;20059;-68
2024/01/12 07:40:17;;;;;;;33.25;16.83;;;;;;;-3.03;55.62;94678.50;4194962;28;20091;-68
2024/01/12 07:42:19;;;;;;;29.98;15.60;;;;;;;-2.86;55.06;94685.34;4205831;28;20059;-68
2024/01/12 07:44:21;;;;;;;32.38;16.73;;;;;;;-3.12;55.89;94695.19;4209161;28;20131;-67
2024/01/12 07:46:23;;;;;;;27.63;15.30;;;;;;;-3.09;55.38;94689.06;4209855;28;20052;-68
2024/01/12 07:48:25;;;;;;;28.83;15.55;;;;;;;-3.05;55.94;94687.16;4205893;28;20415;-70
2024/01/12 07:50:27;;;;;;;31.45;16.27;;;;;;;-3.32;56.27;94701.28;4206649;28;20598;-68
2024/01/12 07:52:29;;;;;;;29.58;17.75;;;;;;;-3.40;57.24;94702.56;4205136;28;20080;-67
2024/01/12 07:54:31;;;;;;;27.05;17.08;;;;;;;-3.36;57.58;94699.78;4209244;28;20037;-68
2024/01/12 07:56:33;;;;;;;32.40;17.55;;;;;;;-2.91;57.33;94702.69;4207462;28;20064;-68
2024/01/12 07:58:35;;;;;;;35.03;18.98;;;;;;;-2.77;56.66;94707.94;4198773;28;20439;-69
2024/01/12 08:00:37;;;;;;;31.58;16.60;;;;;;;-2.52;56.11;94720.34;4202683;28;20056;-68
2024/01/12 08:02:39;;;;;;;32.78;18.20;;;;;;;-3.00;56.72;94705.72;4207531;28;20054;-66
2024/01/12 08:04:40;;;;;;;36.95;17.98;;;;;;;-3.43;57.60;94721.47;4204733;28;20482;-70
2024/01/12 08:06:42;;;;;;;36.45;17.90;;;;;;;-3.21;57.89;94712.75;4198131;28;20060;-69
2024/01/12 08:08:44;;;;;;;39.80;19.27;;;;;;;-3.02;57.42;94718.59;4203815;28;20519;-67
2024/01/12 08:10:46;;;;;;;34.63;18.25;;;;;;;-2.82;57.42;94716.75;4200862;28;20048;-69
2024/01/12 08:12:49;;;;;;;30.85;17.05;;;;;;;-2.65;56.76;94718.47;4206224;28;20707;-70
2024/01/12 08:14:51;;;;;;;34.15;16.95;;;;;;;-2.41;56.13;94716.34;4203058;28;20048;-66
2024/01/12 08:16:54;;;;;;;28.88;17.17;;;;;;;-2.27;55.91;94716.47;4203807;28;20052;-68
2024/01/12 08:18:56;;;;;;;30.48;17.02;;;;;;;-2.13;55.10;94720.84;4203897;28;20075;-68
2024/01/12 08:20:57;;;;;;;33.50;18.55;;;;;;;-2.32;55.72;94726.16;4209990;28;20048;-68
2024/01/12 08:22:59;;;;;;;33.63;18.00;;;;;;;-2.11;55.68;94730.16;4202887;28;20538;-69
2024/01/12 08:25:01;;;;;;;29.52;17.77;;;;;;;-2.64;56.96;94738.91;4206951;28;20466;-66
2024/01/12 08:27:03;;;;;;;36.78;19.55;;;;;;;-2.52;56.94;94735.72;4203087;28;20079;-69
2024/01/12 08:29:05;;;;;;;37.13;21.40;;;;;;;-2.95;58.07;94740.44;4195068;28;20380;-68
2024/01/12 08:31:07;;;;;;;35.63;20.73;;;;;;;-2.84;58.75;94739.91;4203562;28;20044;-68
2024/01/12 08:33:10;;;;;;;40.67;20.67;;;;;;;-3.25;59.56;94750.47;4199428;28;20095;-68
2024/01/12 08:35:12;;;;;;;38.15;21.05;;;;;;;-3.40;59.94;94762.31;4193113;28;20056;-68
2024/01/12 08:37:15;;;;;;;40.67;21.45;;;;;;;-3.37;60.09;94759.59;4205431;28;20052;-69
2024/01/12 08:39:17;;;;;;;36.13;19.50;;;;;;;-3.01;60.65;94763.00;4200275;28;20059;-67
2024/01/12 08:41:19;;;;;;;44.40;22.02;;;;;;;-2.72;59.61;94759.81;4202265;28;20088;-68
2024/01/12 08:43:21;;;;;;;50.55;24.83;;;;;;;-2.94;60.48;94769.50;4190887;28;20041;-67
2024/01/12 08:45:23;;;;;;;35.80;21.55;;;;;;;-2.52;59.69;94765.66;4204666;28;20163;-68
2024/01/12 08:47:25;;;;;;;40.22;22.02;;;;;;;-2.22;58.78;94762.41;4203070;28;20094;-67
2024/01/12 08:49:27;;;;;;;38.03;20.90;;;;;;;-1.86;58.23;94762.19;4195829;28;20044;-68
2024/01/12 08:51:29;;;;;;;37.40;20.52;;;;;;;-1.99;58.00;94766.34;4198746;28;20106;-70
2024/01/12 08:53:30;;;;;;;38.55;21.52;;;;;;;-1.87;57.44;94765.69;4204713;28;20052;-68
2024/01/12 08:55:32;;;;;;;37.97;19.52;;;;;;;-2.02;57.89;94774.19;4205227;28;20143;-68
2024/01/12 08:57:35;;;;;;;40.28;19.95;;;;;;;-2.02;58.39;94759.63;4202319;28;20055;-68
2024/01/12 08:59:37;;;;;;;40.03;21.13;;;;;;;-1.91;58.56;94769.34;4208197;28;20451;-68
2024/01/12 09:01:39;;;;;;;38.03;21.13;;;;;;;-1.69;57.48;94759.53;4193916;28;20114;-68
2024/01/12 09:03:41;;;;;;;36.95;21.80;;;;;;;-1.75;57.82;94762.44;4192963;28;20651;-68
2024/01/12 09:05:43;;;;;;;37.00;21.50;;;;;;;-1.69;58.06;94774.13;4202900;28;20049;-69
2024/01/12 09:07:45;;;;;;;36.88;21.73;;;;;;;-1.73;57.87;94775.19;4199837;28;20056;-70
2024/01/12 09:09:47;;;;;;;37.20;21.52;;;;;;;-1.74;57.89;94774.38;4206339;28;20135;-68
2024/01/12 09:11:49;;;;;;;36.45;21.85;;;;;;;-2.11;59.07;94788.34;4199629;28;20106;-69
2024/01/12 09:13:51;;;;;;;38.03;21.13;;;;;;;-2.99;60.70;94794.50;4206944;28;20134;-68
2024/01/12 09:15:53;;;;;;;38.78;22.35;;;;;;;-2.95;61.63;94794.28;4202673;28;20215;-69
2024/01/12 09:17:57;;;;;;;41.60;21.73;;;;;;;-2.81;61.36;94796.19;4203558;28;20040;-68
2024/01/12 09:20:00;;;;;;;41.58;22.63;;;;;;;-2.74;60.73;94801.81;4193026;28;20052;-66
2024/01/12 09:22:03;;;;;;;40.40;22.42;;;;;;;-2.48;60.50;94785.94;4202019;28;20049;-70